New Orleans, LA

2:18 PM CDT on September 02, 2014 (GMT -0500)
Mid City Station | Change Station
CLOSE
Current Station
Personal Weather Station
Location: New Orleans, LA
Elevation: 25 ft
Nearby Weather Stations

Elev 25 ft 29.98 °N, 90.08 °W | Updated 3 seconds ago

Mostly Cloudy
Mostly Cloudy
86.8 °F
Feels Like 101 °F
N
10.0
Wind Variable Wind from East
Gusts 10.0 mph

Today
High -- | Low -- °F
--% Chance of Precip.
Yesterday
High -- | Low -- °F
Precip. -- in
6:37 AM 7:21 PM
First Quarter, 54% visible
Pressure 30.04 in
Visibility 4.0 miles
Clouds Few 3400 ft
Mostly Cloudy 4600 ft
Overcast 8000 ft
Heat Index 101 °F
Dew Point 79 °F
Humidity 77%
Rainfall 0.00 in
Snow Depth Not available.
UV 3 out of 12
Pollen 8.40 out of 12
Ozone Good
PM2.5 Good
Flu Activity Not available.
METAR KNEW 021853Z 17004KT 4SM VCTS +RA BR FEW034 BKN046 OVC080 27/24 A3005 RMK AO2 RAB21 TSB50E51 SLP170 P0037 T02670244

More Conditions Fewer Conditions

Pressure 30.04 in
Visibility 4.0 miles
Clouds Few 3400 ft
Mostly Cloudy 4600 ft
Overcast 8000 ft
Heat Index 101 °F
Dew Point 79 °F
Humidity 77%
Rainfall 0.00 in
Snow Depth Not available.
UV 3 out of 12
Pollen 8.40 out of 12
Ozone Good
PM2.5 Good
Flu Activity Not available.
METAR KNEW 021853Z 17004KT 4SM VCTS +RA BR FEW034 BKN046 OVC080 27/24 A3005 RMK AO2 RAB21 TSB50E51 SLP170 P0037 T02670244

More Conditions Fewer Conditions

10-Day Weather Forecast

Almanac

Astronomy

Sep. 02, 2014 Rise Set
Actual Time 6:37 AM CDT 7:21 PM CDT
Civil Twilight 6:13 AM CDT 7:45 PM CDT
Nautical Twilight 5:44 AM CDT 8:14 PM CDT
Astronomical Twilight 5:15 AM CDT 8:43 PM CDT
Moon 1:51 PM CDT No Moon Set
Length of Visible Light 13h 32m
Length of Day
12h 43m
Tomorrow will be 1m 45s shorter.
First Quarter, 54% of the Moon is Illuminated
Today
First Quarter
Sep 8
Full
Sep 15
Last Quarter
Sep 24
New
Oct 1
First Quarter

Today's Extremes

State Highs State Lows

Community

WunderPhotos

Upload Photos

1,749,746 photos uploaded!

WunderBlogs® & News

By Dr. Jeff Masters
Director of Meteorology, Weather Underground
By Kari Strenfel
Meteorologist, Weather Underground
By Christopher C. Burt
Weather Historian, Weather Underground
September 2, 2014
September 2, 2014
September 2, 2014

Nearby

Air Quality

  Air Quality AQ Index Pollutant
Yesterday Good
PM2.5
Yesterday Good
OZONE
Current Good
PM2.5
Current Good
OZONE
Tuesday Good
PM2.5
Tuesday Good
OZONE
Wednesday Good
PM2.5
Wednesday Good
OZONE
Thursday Good
PM2.5
Thursday Good
OZONE

Snow Depth

Station Depth Elevation
No new snow has been reported.

Earthquake Activity

City Distance Mag. Time & Date
No recent earthquake activity has been reported nearby.
Minimum magnitude displayed is 2.5.

Coastal Water Temperatures

Place Temperature
New Canal, LA 82.0 °F
Shell Beach, LA 81.0 °F
Bayou Gauche, LA 84.9 °F

Nearby Weather Stations